sensor_id;sensor_type;location;lat;lon;timestamp;pressure;altitude;pressure_sealevel;temperature;humidity
19236;BME280;9752;54.270;12.470;2022-11-14T00:00:56;102608.78;;;8.78;100.00
19236;BME280;9752;54.270;12.470;2022-11-14T00:06:16;102603.34;;;8.75;100.00
19236;BME280;9752;54.270;12.470;2022-11-14T00:11:38;102603.66;;;8.69;100.00
19236;BME280;9752;54.270;12.470;2022-11-14T00:16:58;102594.38;;;8.71;100.00
19236;BME280;9752;54.270;12.470;2022-11-14T00:22:18;102589.38;;;8.64;100.00
19236;BME280;9752;54.270;12.470;2022-11-14T00:27:40;102589.22;;;8.63;100.00
19236;BME280;9752;54.270;12.470;2022-11-14T00:33:00;102577.06;;;8.62;100.00
19236;BME280;9752;54.270;12.470;2022-11-14T00:38:21;102575.22;;;8.60;100.00
19236;BME280;9752;54.270;12.470;2022-11-14T00:43:43;102576.44;;;8.55;100.00
19236;BME280;9752;54.270;12.470;2022-11-14T00:49:04;102569.00;;;8.50;100.00
19236;BME280;9752;54.270;12.470;2022-11-14T00:54:24;102562.66;;;8.46;100.00
19236;BME280;9752;54.270;12.470;2022-11-14T00:59:46;102561.25;;;8.41;100.00
19236;BME280;9752;54.270;12.470;2022-11-14T01:05:07;102561.25;;;8.41;100.00
19236;BME280;9752;54.270;12.470;2022-11-14T01:10:27;102552.28;;;8.37;100.00
19236;BME280;9752;54.270;12.470;2022-11-14T01:15:49;102549.06;;;8.40;100.00
19236;BME280;9752;54.270;12.470;2022-11-14T01:21:11;102542.84;;;8.38;100.00
19236;BME280;9752;54.270;12.470;2022-11-14T01:26:32;102537.06;;;8.32;100.00
19236;BME280;9752;54.270;12.470;2022-11-14T01:31:54;102529.94;;;8.29;100.00
19236;BME280;9752;54.270;12.470;2022-11-14T01:37:14;102518.84;;;8.21;100.00
19236;BME280;9752;54.270;12.470;2022-11-14T01:42:34;102519.75;;;8.22;100.00
19236;BME280;9752;54.270;12.470;2022-11-14T01:47:56;102526.50;;;8.02;100.00
19236;BME280;9752;54.270;12.470;2022-11-14T01:53:16;102505.94;;;8.04;100.00
19236;BME280;9752;54.270;12.470;2022-11-14T01:58:40;102504.56;;;8.08;100.00
19236;BME280;9752;54.270;12.470;2022-11-14T02:04:04;102505.19;;;8.05;100.00
19236;BME280;9752;54.270;12.470;2022-11-14T02:09:26;102489.38;;;8.02;100.00
19236;BME280;9752;54.270;12.470;2022-11-14T02:14:49;102485.41;;;8.06;100.00
19236;BME280;9752;54.270;12.470;2022-11-14T02:20:18;102488.31;;;8.00;100.00
19236;BME280;9752;54.270;12.470;2022-11-14T02:25:39;102484.25;;;7.93;100.00
19236;BME280;9752;54.270;12.470;2022-11-14T02:30:59;102474.69;;;7.84;100.00
19236;BME280;9752;54.270;12.470;2022-11-14T02:36:21;102468.00;;;7.77;100.00
19236;BME280;9752;54.270;12.470;2022-11-14T02:41:41;102470.25;;;7.74;100.00
19236;BME280;9752;54.270;12.470;2022-11-14T02:47:02;102464.19;;;7.73;100.00
19236;BME280;9752;54.270;12.470;2022-11-14T02:52:23;102454.16;;;7.68;100.00
19236;BME280;9752;54.270;12.470;2022-11-14T02:57:43;102447.34;;;7.59;100.00
19236;BME280;9752;54.270;12.470;2022-11-14T03:03:04;102449.03;;;7.59;100.00
19236;BME280;9752;54.270;12.470;2022-11-14T03:08:26;102433.19;;;7.47;100.00
19236;BME280;9752;54.270;12.470;2022-11-14T03:13:46;102429.28;;;7.42;100.00
19236;BME280;9752;54.270;12.470;2022-11-14T03:19:06;102412.56;;;7.38;100.00
19236;BME280;9752;54.270;12.470;2022-11-14T03:24:28;102422.13;;;7.39;100.00
19236;BME280;9752;54.270;12.470;2022-11-14T03:29:49;102416.81;;;7.38;100.00
19236;BME280;9752;54.270;12.470;2022-11-14T03:35:10;102415.63;;;7.34;100.00
19236;BME280;9752;54.270;12.470;2022-11-14T03:40:31;102417.41;;;7.35;100.00
19236;BME280;9752;54.270;12.470;2022-11-14T03:45:52;102413.91;;;7.26;100.00
19236;BME280;9752;54.270;12.470;2022-11-14T03:51:12;102411.47;;;7.19;100.00
19236;BME280;9752;54.270;12.470;2022-11-14T03:56:34;102408.00;;;7.18;100.00
19236;BME280;9752;54.270;12.470;2022-11-14T04:01:54;102401.94;;;7.18;100.00
19236;BME280;9752;54.270;12.470;2022-11-14T04:07:14;102410.72;;;7.11;100.00
19236;BME280;9752;54.270;12.470;2022-11-14T04:12:36;102408.13;;;6.94;100.00
19236;BME280;9752;54.270;12.470;2022-11-14T04:17:56;102405.56;;;6.85;100.00
19236;BME280;9752;54.270;12.470;2022-11-14T04:23:17;102407.03;;;6.74;100.00
19236;BME280;9752;54.270;12.470;2022-11-14T04:28:39;102403.22;;;6.71;100.00
19236;BME280;9752;54.270;12.470;2022-11-14T04:33:59;102408.22;;;6.69;100.00
19236;BME280;9752;54.270;12.470;2022-11-14T04:39:20;102404.91;;;6.70;100.00
19236;BME280;9752;54.270;12.470;2022-11-14T04:44:41;102404.75;;;6.69;100.00
19236;BME280;9752;54.270;12.470;2022-11-14T04:50:03;102395.63;;;6.55;100.00
19236;BME280;9752;54.270;12.470;2022-11-14T04:55:23;102393.50;;;6.59;100.00
19236;BME280;9752;54.270;12.470;2022-11-14T05:00:45;102382.56;;;6.53;100.00
19236;BME280;9752;54.270;12.470;2022-11-14T05:06:06;102388.63;;;6.54;100.00
19236;BME280;9752;54.270;12.470;2022-11-14T05:11:26;102384.81;;;6.50;100.00
19236;BME280;9752;54.270;12.470;2022-11-14T05:16:47;102370.56;;;6.45;100.00
19236;BME280;9752;54.270;12.470;2022-11-14T05:22:08;102376.31;;;6.42;100.00
19236;BME280;9752;54.270;12.470;2022-11-14T05:27:28;102369.75;;;6.37;100.00
19236;BME280;9752;54.270;12.470;2022-11-14T05:32:51;102359.84;;;6.16;100.00
19236;BME280;9752;54.270;12.470;2022-11-14T05:38:11;102369.47;;;6.01;100.00
19236;BME280;9752;54.270;12.470;2022-11-14T05:43:31;102369.91;;;5.97;100.00
19236;BME280;9752;54.270;12.470;2022-11-14T05:48:53;102369.53;;;5.94;100.00
19236;BME280;9752;54.270;12.470;2022-11-14T05:54:13;102372.41;;;5.88;100.00
19236;BME280;9752;54.270;12.470;2022-11-14T05:59:34;102371.66;;;5.89;100.00
19236;BME280;9752;54.270;12.470;2022-11-14T06:04:56;102367.84;;;5.85;100.00
19236;BME280;9752;54.270;12.470;2022-11-14T06:10:16;102380.59;;;5.93;100.00
19236;BME280;9752;54.270;12.470;2022-11-14T06:15:36;102385.13;;;5.86;100.00
19236;BME280;9752;54.270;12.470;2022-11-14T06:20:59;102382.31;;;5.76;100.00
19236;BME280;9752;54.270;12.470;2022-11-14T06:26:21;102380.19;;;5.72;100.00
19236;BME280;9752;54.270;12.470;2022-11-14T06:31:42;102377.00;;;5.75;100.00
19236;BME280;9752;54.270;12.470;2022-11-14T06:37:04;102370.53;;;5.78;100.00
19236;BME280;9752;54.270;12.470;2022-11-14T06:42:25;102369.94;;;5.81;100.00
19236;BME280;9752;54.270;12.470;2022-11-14T06:47:45;102380.09;;;5.79;100.00
19236;BME280;9752;54.270;12.470;2022-11-14T06:53:07;102385.56;;;5.82;100.00
19236;BME280;9752;54.270;12.470;2022-11-14T06:58:28;102392.69;;;5.85;100.00
19236;BME280;9752;54.270;12.470;2022-11-14T07:03:48;102397.22;;;5.87;100.00
19236;BME280;9752;54.270;12.470;2022-11-14T07:09:10;102397.56;;;5.91;100.00
19236;BME280;9752;54.270;12.470;2022-11-14T07:14:31;102389.78;;;5.98;100.00
19236;BME280;9752;54.270;12.470;2022-11-14T07:19:51;102399.94;;;6.05;100.00
19236;BME280;9752;54.270;12.470;2022-11-14T07:25:13;102409.41;;;6.13;100.00
19236;BME280;9752;54.270;12.470;2022-11-14T07:30:33;102405.59;;;6.18;100.00
19236;BME280;9752;54.270;12.470;2022-11-14T07:35:54;102398.31;;;6.14;100.00
19236;BME280;9752;54.270;12.470;2022-11-14T07:41:16;102396.22;;;6.19;100.00
19236;BME280;9752;54.270;12.470;2022-11-14T07:46:37;102380.78;;;6.28;100.00
19236;BME280;9752;54.270;12.470;2022-11-14T07:51:57;102370.03;;;6.32;100.00
19236;BME280;9752;54.270;12.470;2022-11-14T07:57:19;102357.19;;;6.40;100.00
19236;BME280;9752;54.270;12.470;2022-11-14T08:02:39;102357.84;;;6.55;100.00
19236;BME280;9752;54.270;12.470;2022-11-14T08:07:59;102348.16;;;6.53;100.00
19236;BME280;9752;54.270;12.470;2022-11-14T08:13:21;102339.84;;;6.64;100.00
19236;BME280;9752;54.270;12.470;2022-11-14T08:18:41;102330.28;;;6.72;100.00
19236;BME280;9752;54.270;12.470;2022-11-14T08:24:02;102329.81;;;6.58;100.00
19236;BME280;9752;54.270;12.470;2022-11-14T08:29:23;102310.53;;;6.55;100.00
19236;BME280;9752;54.270;12.470;2022-11-14T08:34:44;102307.81;;;6.53;100.00
19236;BME280;9752;54.270;12.470;2022-11-14T08:40:05;102297.03;;;6.75;100.00
19236;BME280;9752;54.270;12.470;2022-11-14T08:45:28;102309.34;;;6.95;100.00
19236;BME280;9752;54.270;12.470;2022-11-14T08:50:48;102295.94;;;7.42;100.00
19236;BME280;9752;54.270;12.470;2022-11-14T08:56:09;102287.84;;;7.57;100.00
19236;BME280;9752;54.270;12.470;2022-11-14T09:01:31;102270.28;;;7.35;100.00
19236;BME280;9752;54.270;12.470;2022-11-14T09:06:52;102267.63;;;7.70;100.00
19236;BME280;9752;54.270;12.470;2022-11-14T09:12:12;102250.69;;;7.82;100.00
19236;BME280;9752;54.270;12.470;2022-11-14T09:17:34;102230.41;;;7.96;100.00
19236;BME280;9752;54.270;12.470;2022-11-14T09:22:57;102217.56;;;8.06;100.00
19236;BME280;9752;54.270;12.470;2022-11-14T09:28:17;102195.47;;;8.37;100.00
19236;BME280;9752;54.270;12.470;2022-11-14T09:33:39;102191.50;;;8.41;100.00
19236;BME280;9752;54.270;12.470;2022-11-14T09:38:59;102176.50;;;8.56;100.00
19236;BME280;9752;54.270;12.470;2022-11-14T09:44:33;102172.03;;;8.45;100.00
19236;BME280;9752;54.270;12.470;2022-11-14T09:50:04;102158.31;;;8.46;100.00
19236;BME280;9752;54.270;12.470;2022-11-14T09:55:27;102146.38;;;8.56;100.00
19236;BME280;9752;54.270;12.470;2022-11-14T10:00:51;102159.91;;;8.35;100.00
19236;BME280;9752;54.270;12.470;2022-11-14T10:06:22;102158.31;;;8.46;100.00
19236;BME280;9752;54.270;12.470;2022-11-14T10:11:49;102154.09;;;8.46;100.00
19236;BME280;9752;54.270;12.470;2022-11-14T10:17:22;102140.63;;;8.12;100.00
19236;BME280;9752;54.270;12.470;2022-11-14T10:23:08;102126.56;;;8.38;100.00
19236;BME280;9752;54.270;12.470;2022-11-14T10:28:40;102118.56;;;8.35;100.00
19236;BME280;9752;54.270;12.470;2022-11-14T10:34:05;102118.53;;;8.73;100.00
19236;BME280;9752;54.270;12.470;2022-11-14T10:39:34;102111.22;;;8.58;100.00
19236;BME280;9752;54.270;12.470;2022-11-14T10:45:01;102101.03;;;8.22;100.00
19236;BME280;9752;54.270;12.470;2022-11-14T10:50:24;102100.38;;;8.25;100.00
19236;BME280;9752;54.270;12.470;2022-11-14T10:55:50;102092.81;;;8.55;100.00
19236;BME280;9752;54.270;12.470;2022-11-14T11:01:33;102095.00;;;8.80;100.00
19236;BME280;9752;54.270;12.470;2022-11-14T11:06:55;102080.38;;;8.51;100.00
19236;BME280;9752;54.270;12.470;2022-11-14T11:12:19;102076.50;;;8.46;100.00
19236;BME280;9752;54.270;12.470;2022-11-14T11:17:53;102063.59;;;8.46;100.00
19236;BME280;9752;54.270;12.470;2022-11-14T11:23:18;102052.44;;;8.47;100.00
19236;BME280;9752;54.270;12.470;2022-11-14T11:28:41;102055.91;;;7.99;100.00
19236;BME280;9752;54.270;12.470;2022-11-14T11:34:02;102055.56;;;7.86;100.00
19236;BME280;9752;54.270;12.470;2022-11-14T11:39:26;102046.25;;;8.07;100.00
19236;BME280;9752;54.270;12.470;2022-11-14T11:44:52;102032.53;;;8.86;100.00
19236;BME280;9752;54.270;12.470;2022-11-14T11:50:18;102015.72;;;8.91;100.00
19236;BME280;9752;54.270;12.470;2022-11-14T11:55:41;102006.25;;;8.71;100.00
19236;BME280;9752;54.270;12.470;2022-11-14T12:01:04;102007.63;;;8.57;100.00
19236;BME280;9752;54.270;12.470;2022-11-14T12:06:26;102012.03;;;8.58;100.00
19236;BME280;9752;54.270;12.470;2022-11-14T12:11:52;102015.03;;;8.14;100.00
19236;BME280;9752;54.270;12.470;2022-11-14T12:23:24;101999.00;;;8.37;100.00
19236;BME280;9752;54.270;12.470;2022-11-14T12:28:57;102002.84;;;7.84;100.00
19236;BME280;9752;54.270;12.470;2022-11-14T12:34:25;102009.91;;;7.76;100.00
19236;BME280;9752;54.270;12.470;2022-11-14T12:39:54;102011.34;;;8.02;100.00
19236;BME280;9752;54.270;12.470;2022-11-14T12:57:07;102004.53;;;8.02;100.00
19236;BME280;9752;54.270;12.470;2022-11-14T13:03:13;101986.97;;;8.67;100.00
19236;BME280;9752;54.270;12.470;2022-11-14T13:08:54;101966.88;;;8.54;100.00
19236;BME280;9752;54.270;12.470;2022-11-14T13:14:20;101944.31;;;8.33;100.00
19236;BME280;9752;54.270;12.470;2022-11-14T13:19:58;101947.84;;;8.14;100.00
19236;BME280;9752;54.270;12.470;2022-11-14T13:25:37;101946.63;;;8.40;100.00
19236;BME280;9752;54.270;12.470;2022-11-14T13:31:18;101947.28;;;8.37;100.00
19236;BME280;9752;54.270;12.470;2022-11-14T13:36:42;101947.63;;;7.92;100.00
19236;BME280;9752;54.270;12.470;2022-11-14T13:42:22;101937.94;;;7.71;100.00
19236;BME280;9752;54.270;12.470;2022-11-14T13:53:42;101933.41;;;7.49;100.00
19236;BME280;9752;54.270;12.470;2022-11-14T13:59:32;101933.06;;;7.36;100.00
19236;BME280;9752;54.270;12.470;2022-11-14T14:05:03;101946.94;;;7.28;100.00
19236;BME280;9752;54.270;12.470;2022-11-14T14:10:35;101943.03;;;7.22;100.00
19236;BME280;9752;54.270;12.470;2022-11-14T14:16:03;101932.78;;;7.14;100.00
19236;BME280;9752;54.270;12.470;2022-11-14T14:21:36;101925.59;;;7.01;100.00
19236;BME280;9752;54.270;12.470;2022-11-14T14:27:10;101926.13;;;6.88;100.00
19236;BME280;9752;54.270;12.470;2022-11-14T14:32:36;101924.69;;;6.73;100.00
19236;BME280;9752;54.270;12.470;2022-11-14T14:37:57;101932.03;;;6.59;100.00
19236;BME280;9752;54.270;12.470;2022-11-14T14:43:23;101920.13;;;6.42;100.00
19236;BME280;9752;54.270;12.470;2022-11-14T14:48:44;101915.66;;;6.22;100.00
19236;BME280;9752;54.270;12.470;2022-11-14T14:54:18;101922.38;;;6.03;100.00
19236;BME280;9752;54.270;12.470;2022-11-14T14:59:39;101935.09;;;5.93;100.00
19236;BME280;9752;54.270;12.470;2022-11-14T15:05:00;101939.81;;;5.71;100.00
19236;BME280;9752;54.270;12.470;2022-11-14T15:10:23;101942.41;;;5.44;100.00
19236;BME280;9752;54.270;12.470;2022-11-14T15:15:48;101951.59;;;5.25;100.00
19236;BME280;9752;54.270;12.470;2022-11-14T15:21:13;101956.88;;;5.18;100.00
19236;BME280;9752;54.270;12.470;2022-11-14T15:26:36;101962.66;;;5.15;100.00
19236;BME280;9752;54.270;12.470;2022-11-14T15:31:58;101973.06;;;5.08;100.00
19236;BME280;9752;54.270;12.470;2022-11-14T15:37:21;101970.66;;;5.01;100.00
19236;BME280;9752;54.270;12.470;2022-11-14T15:42:43;101966.97;;;4.90;100.00
19236;BME280;9752;54.270;12.470;2022-11-14T15:48:10;101956.56;;;4.97;100.00
19236;BME280;9752;54.270;12.470;2022-11-14T15:53:33;101968.53;;;5.05;100.00
19236;BME280;9752;54.270;12.470;2022-11-14T15:58:57;101974.56;;;5.06;100.00
19236;BME280;9752;54.270;12.470;2022-11-14T16:04:18;101979.72;;;4.97;100.00
19236;BME280;9752;54.270;12.470;2022-11-14T16:09:39;101985.41;;;4.86;100.00
19236;BME280;9752;54.270;12.470;2022-11-14T16:15:00;101987.00;;;4.68;100.00
19236;BME280;9752;54.270;12.470;2022-11-14T16:20:23;101986.19;;;4.52;100.00
19236;BME280;9752;54.270;12.470;2022-11-14T16:25:43;101988.25;;;4.38;100.00
19236;BME280;9752;54.270;12.470;2022-11-14T16:31:10;101991.09;;;4.33;100.00
19236;BME280;9752;54.270;12.470;2022-11-14T16:36:30;101994.44;;;4.16;100.00
19236;BME280;9752;54.270;12.470;2022-11-14T16:41:51;101990.06;;;4.15;100.00
19236;BME280;9752;54.270;12.470;2022-11-14T16:47:13;101986.03;;;4.25;100.00
19236;BME280;9752;54.270;12.470;2022-11-14T16:52:33;101980.03;;;4.34;100.00
19236;BME280;9752;54.270;12.470;2022-11-14T16:57:54;101990.94;;;4.40;100.00
19236;BME280;9752;54.270;12.470;2022-11-14T17:03:15;102001.81;;;4.37;100.00
19236;BME280;9752;54.270;12.470;2022-11-14T17:08:36;101989.88;;;4.38;100.00
19236;BME280;9752;54.270;12.470;2022-11-14T17:13:57;101995.78;;;4.37;100.00
19236;BME280;9752;54.270;12.470;2022-11-14T17:19:19;102012.19;;;4.30;100.00
19236;BME280;9752;54.270;12.470;2022-11-14T17:24:40;102007.13;;;4.14;100.00
19236;BME280;9752;54.270;12.470;2022-11-14T17:30:03;102014.50;;;4.11;100.00
19236;BME280;9752;54.270;12.470;2022-11-14T17:35:24;102020.97;;;4.07;100.00
19236;BME280;9752;54.270;12.470;2022-11-14T17:40:45;102012.31;;;3.82;100.00
19236;BME280;9752;54.270;12.470;2022-11-14T17:46:06;102018.31;;;3.74;100.00
19236;BME280;9752;54.270;12.470;2022-11-14T17:51:28;102006.47;;;3.67;100.00
19236;BME280;9752;54.270;12.470;2022-11-14T17:56:48;102003.25;;;3.61;100.00
19236;BME280;9752;54.270;12.470;2022-11-14T18:02:12;101994.38;;;3.50;100.00
19236;BME280;9752;54.270;12.470;2022-11-14T18:07:33;101998.94;;;3.53;100.00
19236;BME280;9752;54.270;12.470;2022-11-14T18:12:54;101997.63;;;3.57;100.00
19236;BME280;9752;54.270;12.470;2022-11-14T18:18:14;101994.31;;;3.58;100.00
19236;BME280;9752;54.270;12.470;2022-11-14T18:23:38;102002.16;;;3.59;100.00
19236;BME280;9752;54.270;12.470;2022-11-14T18:29:00;102011.59;;;3.51;100.00
19236;BME280;9752;54.270;12.470;2022-11-14T18:34:20;102019.13;;;3.50;100.00
19236;BME280;9752;54.270;12.470;2022-11-14T18:39:42;102020.72;;;3.57;100.00
19236;BME280;9752;54.270;12.470;2022-11-14T18:45:03;102011.09;;;3.47;100.00
19236;BME280;9752;54.270;12.470;2022-11-14T18:50:23;102008.03;;;3.42;100.00
19236;BME280;9752;54.270;12.470;2022-11-14T18:55:45;102014.25;;;3.28;100.00
19236;BME280;9752;54.270;12.470;2022-11-14T19:01:12;102003.81;;;3.27;100.00
19236;BME280;9752;54.270;12.470;2022-11-14T19:06:34;101991.06;;;3.04;100.00
19236;BME280;9752;54.270;12.470;2022-11-14T19:11:56;101984.22;;;3.11;100.00
19236;BME280;9752;54.270;12.470;2022-11-14T19:17:34;101983.03;;;3.17;100.00
19236;BME280;9752;54.270;12.470;2022-11-14T19:22:54;101979.50;;;3.07;100.00
19236;BME280;9752;54.270;12.470;2022-11-14T19:28:16;101990.41;;;3.13;100.00
19236;BME280;9752;54.270;12.470;2022-11-14T19:33:38;101993.41;;;3.09;100.00
19236;BME280;9752;54.270;12.470;2022-11-14T19:38:59;101985.78;;;3.02;100.00
19236;BME280;9752;54.270;12.470;2022-11-14T19:44:21;101975.34;;;3.01;100.00
19236;BME280;9752;54.270;12.470;2022-11-14T19:49:41;101971.28;;;3.03;100.00
19236;BME280;9752;54.270;12.470;2022-11-14T19:55:02;101975.09;;;3.06;100.00
19236;BME280;9752;54.270;12.470;2022-11-14T20:00:24;101978.44;;;3.21;100.00
19236;BME280;9752;54.270;12.470;2022-11-14T20:05:44;101970.72;;;3.37;100.00
19236;BME280;9752;54.270;12.470;2022-11-14T20:11:05;101973.47;;;3.23;100.00
19236;BME280;9752;54.270;12.470;2022-11-14T20:16:29;101956.84;;;3.19;100.00
19236;BME280;9752;54.270;12.470;2022-11-14T20:21:49;101960.13;;;3.18;100.00
19236;BME280;9752;54.270;12.470;2022-11-14T20:27:10;101959.81;;;3.31;100.00
19236;BME280;9752;54.270;12.470;2022-11-14T20:32:31;101956.50;;;3.16;100.00
19236;BME280;9752;54.270;12.470;2022-11-14T20:37:52;101962.38;;;3.31;100.00
19236;BME280;9752;54.270;12.470;2022-11-14T20:43:12;101944.09;;;3.28;100.00
19236;BME280;9752;54.270;12.470;2022-11-14T20:48:34;101954.94;;;3.25;100.00
19236;BME280;9752;54.270;12.470;2022-11-14T20:53:54;101961.69;;;3.09;100.00
19236;BME280;9752;54.270;12.470;2022-11-14T20:59:15;101957.22;;;2.99;100.00
19236;BME280;9752;54.270;12.470;2022-11-14T21:04:36;101939.47;;;2.85;100.00
19236;BME280;9752;54.270;12.470;2022-11-14T21:09:57;101935.94;;;2.68;100.00
19236;BME280;9752;54.270;12.470;2022-11-14T21:15:35;101930.88;;;2.61;100.00
19236;BME280;9752;54.270;12.470;2022-11-14T21:20:59;101925.22;;;2.64;100.00
19236;BME280;9752;54.270;12.470;2022-11-14T21:26:22;101935.38;;;2.71;100.00
19236;BME280;9752;54.270;12.470;2022-11-14T21:31:44;101936.81;;;2.92;100.00
19236;BME280;9752;54.270;12.470;2022-11-14T21:37:05;101929.56;;;3.04;100.00
19236;BME280;9752;54.270;12.470;2022-11-14T21:42:25;101910.28;;;3.07;100.00
19236;BME280;9752;54.270;12.470;2022-11-14T21:47:46;101921.84;;;3.51;100.00
19236;BME280;9752;54.270;12.470;2022-11-14T21:53:07;101917.91;;;3.96;100.00
19236;BME280;9752;54.270;12.470;2022-11-14T21:58:33;101932.06;;;4.17;100.00
19236;BME280;9752;54.270;12.470;2022-11-14T22:03:54;101927.44;;;4.30;100.00
19236;BME280;9752;54.270;12.470;2022-11-14T22:09:34;101911.03;;;4.37;100.00
19236;BME280;9752;54.270;12.470;2022-11-14T22:14:54;101912.69;;;4.45;100.00
19236;BME280;9752;54.270;12.470;2022-11-14T22:20:15;101910.75;;;4.51;100.00
19236;BME280;9752;54.270;12.470;2022-11-14T22:25:37;101910.47;;;4.57;100.00
19236;BME280;9752;54.270;12.470;2022-11-14T22:31:05;101924.72;;;4.62;100.00
19236;BME280;9752;54.270;12.470;2022-11-14T22:36:26;101925.03;;;4.65;100.00
19236;BME280;9752;54.270;12.470;2022-11-14T22:41:47;101915.81;;;4.67;100.00
19236;BME280;9752;54.270;12.470;2022-11-14T22:47:08;101922.00;;;4.69;100.00
19236;BME280;9752;54.270;12.470;2022-11-14T22:52:28;101915.81;;;4.76;100.00
19236;BME280;9752;54.270;12.470;2022-11-14T22:57:50;101922.34;;;4.81;100.00
19236;BME280;9752;54.270;12.470;2022-11-14T23:03:29;101915.56;;;4.90;100.00
19236;BME280;9752;54.270;12.470;2022-11-14T23:08:50;101913.56;;;4.87;100.00
19236;BME280;9752;54.270;12.470;2022-11-14T23:14:12;101903.78;;;4.92;100.00
19236;BME280;9752;54.270;12.470;2022-11-14T23:19:32;101902.56;;;4.97;100.00
19236;BME280;9752;54.270;12.470;2022-11-14T23:24:53;101904.97;;;5.04;100.00
19236;BME280;9752;54.270;12.470;2022-11-14T23:30:15;101916.19;;;5.05;100.00
19236;BME280;9752;54.270;12.470;2022-11-14T23:35:35;101911.66;;;5.11;100.00
19236;BME280;9752;54.270;12.470;2022-11-14T23:40:56;101902.13;;;5.10;100.00
19236;BME280;9752;54.270;12.470;2022-11-14T23:46:18;101906.22;;;5.17;100.00
19236;BME280;9752;54.270;12.470;2022-11-14T23:51:39;101885.97;;;5.20;100.00
19236;BME280;9752;54.270;12.470;2022-11-14T23:56:59;101888.06;;;5.24;100.00
